Airfield :
LOGIN :

Register | Disclaimer

   EN    FR    IT 

 










Legend :    VFR   Marginal VFR   IFR   Intensive IFR   Very Intensive IFR
Visi :
Ceiling :
>= 8 km
>= 3000ft
5 to 8 km
1000 to 3000 ft
1500m to 5 km
500 to 1000 ft
800 to 1500m
200 to 500 ft
< 800m
< 200 ft
Symbols :   Thunderstorms  Fog  Heavy snow  Heavy precipitations  Wind > 20 kt
SIGMETs :     Misc.  Thunderstorms  Icing  Turbulence  Mountain Waves  Volcanic Ashes






- Airport Elevation : 240 ft
- IATA code : VLC


LEVC - Valencia Manises

CURRENT METAR :
  • 030900Z 11006KT 060V160 CAVOK 27/16 Q1017 NOSIG

EXPIRED METARs :
  • 030830Z 12006KT 080V160 CAVOK 27/16 Q1017 NOSIG
  • 030800Z 12003KT 060V200 CAVOK 27/14 Q1018 NOSIG
  • 030730Z 08002KT CAVOK 26/15 Q1017 NOSIG
  • 030700Z VRB02KT 9999 FEW050 24/17 Q1018 NOSIG
  • 030630Z 32004KT 9999 FEW050 23/17 Q1017 NOSIG

TAF TAF LEVC
Valid from the 03 at 06:00 until the 04 at 06:00 UTC


030500Z 0306/0406 VRB03KT 9999 FEW040 TX32/0313Z TN22/0306Z
BECMG 0308/0310 09008KT
BECMG 0320/0322 VRB03KT



MET'MAP, your aeronautical weather chart ! - Copyright ORBIFLY December 2007 - Disclaimer

ORBIFLY MET'MAP TEAM :

Programming & Development : Alexandra Zaïnal
Original concept : Baudouin d'Aumeries
Technical & hardware support : Manuel Goepfert
Assistance : Marc-Olivier Méhu




SOURCES & CREDITS :

   NOAA